»·PEaware :: SWA1468 KSNA-KPHX

SWA1468 :: KSNA-KPHX

FLIGHT INFORMATION

Flight Status: Arrived
Operator:
Southwest Airlines
More flights by this operator :: More flights under this callsign
Pilot: Paul A. (20189)
Aircraft: BOEING 737-700
(B737)
More flights by this aircraft type
Origin: KSNA John Wayne-Orange Co
United States
Destination: KPHX Phoenix Sky Harbor Intl
United States
More flights between these airports :: More routes between these airports
Route: PIGGN2 CNERY BLH HYDRR1
File this flight plan on PilotEdge
Remarks:
Altitude:
(Current/Filed)
33,000ft
Speed:
(Current/Filed)
455kts
Departed: 06-Dec-18 08:43 AM
Arrived: 06-Dec-18 09:32 AM
Distance/Time
Traveled:
294nm/0:48
Distance/Time
To Go:
Arrived

Flight Plot

Page will automatically refresh every two minutes.

Flight plan parsing failed; only flown route is shown


Map Options




Map Legend


Flown Route
Filed Route
Departure Airport
Arrival Airport
Navaid (VOR, NDB)
Fix

Horizontal Profiles

Position Reports

Time Latitude Longitude Heading Altitude Ground
Speed
06-Dec-18 08:20 33.680560 -117.861468 116 63ft 0kts
06-Dec-18 08:21 33.680560 -117.861468 116 63ft 0kts
06-Dec-18 08:22 33.680560 -117.861468 116 63ft 0kts
06-Dec-18 08:23 33.680560 -117.861468 116 63ft 0kts
06-Dec-18 08:24 33.680560 -117.861468 116 63ft 0kts
06-Dec-18 08:25 33.680560 -117.861468 116 63ft 0kts
06-Dec-18 08:26 33.680560 -117.861468 116 63ft 0kts
06-Dec-18 08:27 33.680560 -117.861468 116 63ft 0kts
06-Dec-18 08:28 33.680560 -117.861468 116 63ft 0kts
06-Dec-18 08:29 33.680560 -117.861468 116 63ft 0kts
06-Dec-18 08:30 33.680672 -117.861741 116 63ft 2kts
06-Dec-18 08:31 33.681116 -117.862163 171 63ft 0kts
06-Dec-18 08:32 33.681116 -117.862163 171 63ft 0kts
06-Dec-18 08:33 33.681116 -117.862163 171 63ft 0kts
06-Dec-18 08:34 33.677121 -117.864544 210 63ft 20kts
06-Dec-18 08:35 33.672861 -117.867535 224 63ft 15kts
06-Dec-18 08:36 33.668887 -117.871112 220 63ft 22kts
06-Dec-18 08:37 33.667552 -117.872735 255 63ft 0kts
06-Dec-18 08:38 33.667552 -117.872735 255 63ft 0kts
06-Dec-18 08:39 33.667552 -117.872735 255 63ft 0kts
06-Dec-18 08:40 33.667552 -117.872735 255 63ft 0kts
06-Dec-18 08:41 33.668888 -117.873140 27 63ft 39kts
06-Dec-18 08:42 33.702118 -117.852945 30 2111ft 153kts
06-Dec-18 08:43 33.739496 -117.809904 67 4819ft 217kts
06-Dec-18 08:44 33.736798 -117.740132 138 7198ft 252kts
06-Dec-18 08:45 33.685563 -117.689857 136 10987ft 245kts
06-Dec-18 08:46 33.637851 -117.614594 120 12474ft 329kts
06-Dec-18 08:47 33.594010 -117.508764 120 14960ft 367kts
06-Dec-18 08:48 33.554212 -117.391768 114 17948ft 392kts
06-Dec-18 08:49 33.515403 -117.265808 112 20677ft 412kts
06-Dec-18 08:50 33.502256 -117.124853 95 23039ft 441kts
06-Dec-18 08:51 33.499642 -116.975004 96 25121ft 456kts
06-Dec-18 08:52 33.497080 -116.820679 95 26932ft 471kts
06-Dec-18 08:53 33.495499 -116.661758 96 28491ft 483kts
06-Dec-18 08:54 33.493236 -116.498852 96 30163ft 487kts
06-Dec-18 08:55 33.491074 -116.335758 96 31677ft 492kts
06-Dec-18 08:56 33.488439 -116.171665 97 33044ft 496kts
06-Dec-18 08:57 33.495334 -116.005440 82 33097ft 507kts
06-Dec-18 08:58 33.541545 -115.843880 74 33096ft 514kts
06-Dec-18 08:59 33.589016 -115.681695 74 33090ft 515kts
06-Dec-18 09:00 33.626851 -115.517790 94 33100ft 501kts
06-Dec-18 09:01 33.618186 -115.352832 101 33100ft 498kts
06-Dec-18 09:02 33.607687 -115.187044 99 33101ft 502kts
06-Dec-18 09:03 33.603583 -115.018534 98 33101ft 505kts
06-Dec-18 09:04 33.598719 -114.850246 99 33103ft 506kts
06-Dec-18 09:05 33.582059 -114.685154 112 33105ft 494kts
06-Dec-18 09:06 33.550048 -114.524992 112 31782ft 491kts
06-Dec-18 09:07 33.519349 -114.367279 112 29321ft 477kts
06-Dec-18 09:08 33.489315 -114.215248 111 27045ft 462kts
06-Dec-18 09:09 33.460019 -114.068247 111 25159ft 439kts
06-Dec-18 09:11 33.431782 -113.927670 111 24167ft 435kts
06-Dec-18 09:12 33.403850 -113.788231 110 23143ft 427kts
06-Dec-18 09:13 33.376210 -113.651341 110 22142ft 420kts
06-Dec-18 09:14 33.348728 -113.516889 110 21141ft 412kts
06-Dec-18 09:15 33.323620 -113.382675 106 20138ft 410kts
06-Dec-18 09:16 33.300894 -113.250554 106 18284ft 402kts
06-Dec-18 09:17 33.281598 -113.120656 103 16152ft 391kts
06-Dec-18 09:18 33.275579 -112.998140 90 15187ft 355kts
06-Dec-18 09:19 33.279020 -112.882107 91 13484ft 344kts
06-Dec-18 09:20 33.297372 -112.774447 66 12466ft 316kts
06-Dec-18 09:21 33.332025 -112.684251 66 11382ft 286kts
06-Dec-18 09:22 33.364613 -112.599072 68 9350ft 274kts
06-Dec-18 09:23 33.395130 -112.518822 69 8293ft 248kts
06-Dec-18 09:24 33.421980 -112.443628 71 7316ft 248kts
06-Dec-18 09:25 33.429055 -112.364526 93 6171ft 225kts
06-Dec-18 09:26 33.429009 -112.294798 93 5194ft 200kts
06-Dec-18 09:27 33.428977 -112.233103 92 4535ft 180kts
06-Dec-18 09:28 33.428944 -112.177493 91 3637ft 163kts
06-Dec-18 09:29 33.428914 -112.124769 90 2776ft 150kts
06-Dec-18 09:30 33.428887 -112.076975 89 1998ft 138kts
06-Dec-18 09:31 33.428818 -112.031245 88 1257ft 136kts
06-Dec-18 09:31 33.429587 -112.010608 50 1142ft 6kts
06-Dec-18 09:33 33.431686 -112.008841 48 1142ft 8kts
06-Dec-18 09:33 33.432827 -112.008271 89 1143ft 23kts
06-Dec-18 09:34 33.432855 -112.000172 89 1143ft 21kts
06-Dec-18 09:36 33.434043 -111.995010 89 1142ft 0kts
06-Dec-18 09:36 33.434043 -111.995010 89 1142ft 0kts

Navigation Log

Ident Type
Flight plan parsing failed, navigation log unavailable